Time;durP1;ratioP1;P1;durP2;ratioP2;P2;SDS_P1;SDS_P2;PMS_P1;PMS_P2;Temp;Humidity;BMP_temperature;BMP_pressure;BME280_temperature;BME280_humidity;BME280_pressure;Samples;Min_cycle;Max_cycle;Signal;HPM_P1;HPM_P2
2021/04/07 00:00:41;;;;;;;6.32;4.20;;;5.20;71.40;;;;;;6248031;22;20004;-92
2021/04/07 00:03:08;;;;;;;10.07;5.35;;;5.20;71.00;;;;;;6271741;22;20105;-92
2021/04/07 00:05:37;;;;;;;7.72;4.85;;;5.20;71.20;;;;;;6293096;22;20090;-92
2021/04/07 00:08:04;;;;;;;7.78;4.55;;;5.10;71.30;;;;;;6278536;22;20026;-92
2021/04/07 00:10:41;;;;;;;6.45;4.45;;;5.10;71.70;;;;;;6276985;22;19999;-91
2021/04/07 00:13:09;;;;;;;4.75;4.10;;;5.10;72.10;;;;;;6280528;22;20385;-91
2021/04/07 00:15:35;;;;;;;8.35;4.57;;;5.10;72.00;;;;;;6290369;22;19996;-91
2021/04/07 00:18:02;;;;;;;7.43;4.40;;;5.00;72.30;;;;;;6292093;22;20007;-92
2021/04/07 00:20:29;;;;;;;7.65;5.32;;;5.00;72.40;;;;;;6292357;22;20439;-91
2021/04/07 00:22:55;;;;;;;8.13;4.13;;;5.10;73.10;;;;;;6293023;22;20019;-92
2021/04/07 00:25:23;;;;;;;7.88;4.22;;;5.10;72.90;;;;;;6289776;22;20024;-91
2021/04/07 00:30:22;;;;;;;12.95;5.93;;;5.10;73.30;;;;;;6308442;22;20019;-91
2021/04/07 00:32:48;;;;;;;10.05;4.93;;;5.10;73.10;;;;;;6314491;22;20057;-91
2021/04/07 00:35:15;;;;;;;8.23;4.80;;;5.20;74.00;;;;;;6280237;22;20000;-92
2021/04/07 00:37:40;;;;;;;9.60;5.28;;;5.20;73.30;;;;;;6279156;22;20053;-91
2021/04/07 00:40:07;;;;;;;6.88;4.72;;;5.20;74.20;;;;;;6280516;22;20007;-91
2021/04/07 00:42:33;;;;;;;10.00;4.95;;;5.30;73.90;;;;;;6278215;22;20046;-92
2021/04/07 00:44:59;;;;;;;7.78;4.75;;;5.30;73.70;;;;;;6303332;22;20027;-92
2021/04/07 00:47:25;;;;;;;7.40;4.50;;;5.30;73.40;;;;;;6278101;22;20415;-91
2021/04/07 00:49:51;;;;;;;9.43;4.90;;;5.30;73.30;;;;;;6276985;22;20404;-90
2021/04/07 00:52:17;;;;;;;8.15;4.68;;;5.30;73.60;;;;;;6277078;22;20031;-92
2021/04/07 00:54:44;;;;;;;9.30;5.40;;;5.40;74.10;;;;;;6277525;22;20027;-92
2021/04/07 00:57:10;;;;;;;6.75;4.97;;;5.40;73.90;;;;;;6277016;22;20008;-91
2021/04/07 00:59:35;;;;;;;7.93;4.55;;;5.40;75.40;;;;;;6278223;22;19996;-92
2021/04/07 01:02:02;;;;;;;6.03;3.83;;;5.40;74.90;;;;;;6277375;22;20031;-92
2021/04/07 01:04:28;;;;;;;7.97;4.22;;;5.40;74.60;;;;;;6270107;22;20026;-91
2021/04/07 01:06:55;;;;;;;6.07;4.30;;;5.50;74.80;;;;;;6257981;23;20327;-92
2021/04/07 01:09:21;;;;;;;8.85;5.15;;;5.50;74.70;;;;;;6269775;23;20004;-91
2021/04/07 01:11:47;;;;;;;14.80;6.20;;;5.60;74.70;;;;;;6273716;22;19986;-93
2021/04/07 01:14:13;;;;;;;19.58;8.77;;;5.70;75.00;;;;;;6296111;22;20028;-90
2021/04/07 01:16:39;;;;;;;20.90;11.55;;;5.80;75.60;;;;;;6297247;22;19996;-91
2021/04/07 01:19:09;;;;;;;32.92;14.65;;;5.90;75.30;;;;;;6272597;23;20012;-91
2021/04/07 01:21:36;;;;;;;33.25;13.88;;;6.00;75.50;;;;;;6266865;23;20072;-93
2021/04/07 01:24:07;;;;;;;31.50;15.43;;;6.10;75.40;;;;;;6248207;23;20007;-92
2021/04/07 01:26:33;;;;;;;26.92;14.95;;;6.10;75.40;;;;;;6248813;23;20000;-92
2021/04/07 01:28:59;;;;;;;45.05;17.27;;;6.20;75.50;;;;;;6248365;23;20007;-92
2021/04/07 01:31:25;;;;;;;33.50;16.55;;;6.30;75.60;;;;;;6248255;23;20317;-92
2021/04/07 01:33:50;;;;;;;30.13;14.57;;;6.40;75.40;;;;;;6248061;23;20003;-92
2021/04/07 01:36:16;;;;;;;19.77;11.45;;;6.50;75.60;;;;;;6273573;22;20000;-92
2021/04/07 01:38:42;;;;;;;18.95;10.05;;;6.50;75.70;;;;;;6273461;22;20004;-92
2021/04/07 01:41:08;;;;;;;18.17;10.13;;;6.50;75.60;;;;;;6276696;22;20099;-92
2021/04/07 01:43:36;;;;;;;17.80;9.48;;;6.60;75.80;;;;;;6253378;23;20008;-92
2021/04/07 01:46:02;;;;;;;16.02;8.73;;;6.60;76.50;;;;;;6248748;23;20007;-92
2021/04/07 01:48:29;;;;;;;12.70;7.78;;;6.60;76.20;;;;;;6250639;22;19996;-92
2021/04/07 01:50:55;;;;;;;11.52;7.47;;;6.70;76.10;;;;;;6260536;23;20486;-92
2021/04/07 01:53:21;;;;;;;13.27;8.43;;;6.70;76.30;;;;;;6288686;22;20000;-92
2021/04/07 01:55:47;;;;;;;13.68;8.82;;;6.70;76.10;;;;;;6262290;22;20328;-92
2021/04/07 01:58:13;;;;;;;12.90;8.75;;;6.70;76.00;;;;;;6260369;22;20075;-92
2021/04/07 02:00:39;;;;;;;13.93;8.90;;;6.70;76.00;;;;;;6260888;23;20024;-92
2021/04/07 02:03:06;;;;;;;11.35;8.82;;;6.70;76.10;;;;;;6285108;22;20011;-92
2021/04/07 02:05:32;;;;;;;13.23;7.85;;;6.70;76.10;;;;;;6259006;22;20081;-92
2021/04/07 02:07:59;;;;;;;12.05;7.97;;;6.70;76.00;;;;;;6255400;23;20004;-92
2021/04/07 02:10:26;;;;;;;12.25;8.13;;;6.70;76.10;;;;;;6247674;22;20004;-92
2021/04/07 02:12:53;;;;;;;14.05;9.57;;;6.70;76.50;;;;;;6247741;23;20005;-92
2021/04/07 02:15:19;;;;;;;12.20;8.98;;;6.70;76.40;;;;;;6248993;22;20032;-92
2021/04/07 02:17:46;;;;;;;17.25;10.85;;;6.60;76.30;;;;;;6272877;22;20012;-92
2021/04/07 02:20:12;;;;;;;19.70;10.90;;;6.70;76.80;;;;;;6247730;23;20077;-92
2021/04/07 02:22:39;;;;;;;20.65;10.80;;;6.70;76.90;;;;;;6247550;23;20004;-92
2021/04/07 02:25:07;;;;;;;26.95;13.32;;;6.60;76.50;;;;;;6247666;23;20111;-92
2021/04/07 02:27:34;;;;;;;31.13;13.80;;;6.70;76.60;;;;;;6249143;22;20007;-92
2021/04/07 02:30:01;;;;;;;27.88;12.07;;;6.60;76.70;;;;;;6247597;23;20011;-91
2021/04/07 02:32:26;;;;;;;28.17;14.25;;;6.60;76.50;;;;;;6249093;22;19996;-91
2021/04/07 02:34:53;;;;;;;36.58;15.55;;;6.60;76.80;;;;;;6272778;22;20028;-92
2021/04/07 02:37:19;;;;;;;26.33;13.18;;;6.60;76.70;;;;;;6247207;23;20004;-92
2021/04/07 02:39:46;;;;;;;27.98;13.32;;;6.70;76.90;;;;;;6247538;23;20012;-92
2021/04/07 02:42:12;;;;;;;28.10;13.43;;;6.60;76.90;;;;;;6247454;23;20434;-92
2021/04/07 02:44:39;;;;;;;21.23;11.32;;;6.60;77.00;;;;;;6247251;23;20000;-92
2021/04/07 02:47:05;;;;;;;26.17;10.25;;;6.70;76.80;;;;;;6247334;23;20001;-91
2021/04/07 02:49:32;;;;;;;23.30;10.30;;;6.70;76.80;;;;;;6248185;22;20294;-91
2021/04/07 02:51:57;;;;;;;18.83;9.45;;;6.70;76.90;;;;;;6247453;23;19996;-91
2021/04/07 02:54:23;;;;;;;18.38;8.23;;;6.70;76.90;;;;;;6247262;23;20011;-91
2021/04/07 02:56:49;;;;;;;15.50;8.15;;;6.70;76.90;;;;;;6272959;22;20004;-91
2021/04/07 02:59:15;;;;;;;13.25;8.15;;;6.70;77.00;;;;;;6247209;23;20107;-91
2021/04/07 03:01:41;;;;;;;12.25;7.57;;;6.70;77.00;;;;;;6272991;22;20327;-91
2021/04/07 03:04:07;;;;;;;14.95;7.18;;;6.70;77.20;;;;;;6253645;22;20011;-91
2021/04/07 03:06:33;;;;;;;8.93;5.90;;;6.70;77.30;;;;;;6282968;22;19996;-91
2021/04/07 03:08:59;;;;;;;10.82;6.28;;;6.70;77.10;;;;;;6308927;22;20023;-92
2021/04/07 03:11:28;;;;;;;10.77;6.75;;;6.70;77.00;;;;;;6310353;22;20049;-91
2021/04/07 03:13:55;;;;;;;15.85;6.75;;;6.60;76.90;;;;;;6308726;22;20004;-92
2021/04/07 03:16:21;;;;;;;10.88;6.18;;;6.50;77.00;;;;;;6282797;22;20049;-91
2021/04/07 03:18:46;;;;;;;16.60;6.15;;;6.50;77.20;;;;;;6282653;22;20406;-92
2021/04/07 03:21:12;;;;;;;11.45;6.50;;;6.40;77.00;;;;;;6282902;22;20007;-92
2021/04/07 03:23:38;;;;;;;14.70;7.35;;;6.30;76.90;;;;;;6285299;22;20411;-93
2021/04/07 03:26:04;;;;;;;12.07;6.85;;;6.20;77.10;;;;;;6288771;22;20034;-92
2021/04/07 03:28:30;;;;;;;13.23;5.80;;;6.20;77.30;;;;;;6321059;22;19999;-91
2021/04/07 03:30:56;;;;;;;14.90;7.68;;;6.20;77.90;;;;;;6293622;22;20420;-93
2021/04/07 03:33:29;;;;;;;21.40;10.10;;;6.10;78.00;;;;;;6297758;22;19999;-91
2021/04/07 03:35:56;;;;;;;21.10;13.45;;;6.10;78.30;;;;;;6299556;22;20003;-91
2021/04/07 03:38:22;;;;;;;19.30;12.43;;;6.10;78.90;;;;;;6334601;22;20078;-91
2021/04/07 03:40:49;;;;;;;17.15;10.30;;;6.20;79.20;;;;;;6306630;22;20003;-91
2021/04/07 03:43:17;;;;;;;13.65;8.52;;;6.20;79.20;;;;;;6330014;22;20007;-91
2021/04/07 03:45:43;;;;;;;13.98;8.48;;;6.30;79.30;;;;;;6294916;22;20426;-92
2021/04/07 03:48:11;;;;;;;13.63;8.23;;;6.30;79.40;;;;;;6282785;22;20003;-91
2021/04/07 03:50:37;;;;;;;13.20;8.00;;;6.30;79.30;;;;;;6283149;22;20007;-91
2021/04/07 03:53:03;;;;;;;12.68;7.78;;;6.40;79.40;;;;;;6282878;22;19999;-91
2021/04/07 03:55:29;;;;;;;15.23;8.30;;;6.40;79.40;;;;;;6283959;22;19999;-92
2021/04/07 03:57:55;;;;;;;13.95;8.48;;;6.50;79.50;;;;;;6282503;22;20011;-92
2021/04/07 04:00:21;;;;;;;11.55;6.78;;;6.50;79.40;;;;;;6308232;22;20384;-91
2021/04/07 04:02:47;;;;;;;13.65;8.02;;;6.60;79.20;;;;;;6310004;22;20070;-91
2021/04/07 04:05:13;;;;;;;14.32;8.75;;;6.70;79.20;;;;;;6282500;22;20050;-91
2021/04/07 04:07:39;;;;;;;17.63;9.40;;;6.70;79.20;;;;;;6282427;22;20006;-92
2021/04/07 04:10:05;;;;;;;14.07;9.82;;;6.80;79.20;;;;;;6282217;22;20035;-92
2021/04/07 04:12:31;;;;;;;15.10;9.85;;;6.80;79.20;;;;;;6282211;22;20000;-92
2021/04/07 04:14:56;;;;;;;16.05;9.32;;;6.80;79.20;;;;;;6309337;22;20003;-92
2021/04/07 04:17:22;;;;;;;15.35;8.40;;;6.80;79.20;;;;;;6309188;22;20006;-92
2021/04/07 04:19:49;;;;;;;13.75;7.78;;;6.90;79.20;;;;;;6309443;22;20299;-92
2021/04/07 04:22:15;;;;;;;11.13;7.15;;;6.90;79.40;;;;;;6282851;22;20083;-92
2021/04/07 04:24:42;;;;;;;13.65;8.43;;;6.80;79.50;;;;;;6282128;22;19995;-92
2021/04/07 04:27:09;;;;;;;13.65;8.20;;;6.80;79.70;;;;;;6308107;22;20030;-92
2021/04/07 04:29:36;;;;;;;11.35;7.53;;;6.80;79.90;;;;;;6282443;22;20443;-93
2021/04/07 04:32:02;;;;;;;10.43;7.60;;;6.80;80.00;;;;;;6282437;22;20323;-93
2021/04/07 04:34:28;;;;;;;13.82;8.50;;;6.80;80.10;;;;;;6282327;22;20426;-93
2021/04/07 04:36:54;;;;;;;11.82;8.00;;;6.80;80.30;;;;;;6282338;22;20030;-92
2021/04/07 04:39:19;;;;;;;14.90;8.73;;;6.90;80.40;;;;;;6309108;22;20021;-91
2021/04/07 04:41:45;;;;;;;11.45;7.93;;;7.00;80.80;;;;;;6282710;22;20000;-91
2021/04/07 04:44:11;;;;;;;11.50;7.18;;;7.00;80.40;;;;;;6310225;22;20002;-92
2021/04/07 04:46:36;;;;;;;12.82;8.25;;;7.10;80.40;;;;;;6282440;22;19999;-93
2021/04/07 04:49:02;;;;;;;12.60;8.85;;;7.20;80.30;;;;;;6282758;22;20008;-92
2021/04/07 04:51:28;;;;;;;12.90;8.10;;;7.30;80.30;;;;;;6286164;22;19999;-92
2021/04/07 04:53:54;;;;;;;13.20;8.45;;;7.40;80.20;;;;;;6284739;22;19996;-93
2021/04/07 04:56:20;;;;;;;15.00;8.10;;;7.60;80.10;;;;;;6284877;22;20067;-92
2021/04/07 04:58:54;;;;;;;12.10;8.52;;;7.60;79.80;;;;;;6285050;22;20007;-93
2021/04/07 05:01:19;;;;;;;15.77;8.93;;;7.80;79.80;;;;;;6284776;22;20125;-92
2021/04/07 05:03:45;;;;;;;11.98;8.70;;;7.80;79.40;;;;;;6286288;22;20065;-92
2021/04/07 05:06:11;;;;;;;11.98;8.18;;;7.90;79.20;;;;;;6274104;22;20040;-92
2021/04/07 05:08:37;;;;;;;11.02;7.97;;;8.00;79.00;;;;;;6263464;23;20026;-93
2021/04/07 05:11:03;;;;;;;8.45;6.57;;;8.00;78.80;;;;;;6272586;22;19996;-92
2021/04/07 05:13:28;;;;;;;11.75;7.03;;;8.10;78.70;;;;;;6297368;22;19992;-92
2021/04/07 05:15:54;;;;;;;14.52;7.07;;;8.20;78.40;;;;;;6298374;22;20007;-92
2021/04/07 05:18:21;;;;;;;11.75;7.65;;;8.20;78.00;;;;;;6297296;22;20432;-92
2021/04/07 05:20:47;;;;;;;11.57;7.57;;;8.20;77.90;;;;;;6264661;22;20059;-92
2021/04/07 05:23:13;;;;;;;12.52;7.97;;;8.10;77.70;;;;;;6266825;23;20070;-91
2021/04/07 05:25:39;;;;;;;14.48;8.05;;;8.00;77.90;;;;;;6266238;23;20012;-91
2021/04/07 05:28:08;;;;;;;11.13;6.65;;;8.00;78.00;;;;;;6287328;22;20016;-91
2021/04/07 05:33:23;;;;;;;11.57;6.60;;;8.00;78.20;;;;;;6254204;23;20056;-92
2021/04/07 05:35:50;;;;;;;11.57;6.95;;;8.10;78.10;;;;;;6275918;22;20344;-92
2021/04/07 05:38:21;;;;;;;12.77;8.07;;;8.10;77.90;;;;;;6274191;22;20004;-92
2021/04/07 05:40:47;;;;;;;14.82;8.45;;;8.10;77.90;;;;;;6279085;22;20004;-92
2021/04/07 05:43:13;;;;;;;14.32;10.93;;;8.20;77.90;;;;;;6275047;22;20000;-91
2021/04/07 05:45:39;;;;;;;17.92;10.68;;;8.30;77.80;;;;;;6256142;23;20011;-91
2021/04/07 05:48:09;;;;;;;10.82;7.75;;;8.40;77.70;;;;;;6284571;22;20015;-92
2021/04/07 05:50:46;;;;;;;10.88;7.20;;;8.50;77.40;;;;;;6254394;22;20135;-92
2021/04/07 05:53:12;;;;;;;9.43;6.53;;;8.60;77.30;;;;;;6275493;22;20000;-93
2021/04/07 05:55:42;;;;;;;11.45;6.88;;;8.70;77.00;;;;;;6277667;22;20000;-92
2021/04/07 05:58:08;;;;;;;9.95;7.45;;;8.80;76.50;;;;;;6252097;22;20040;-92
2021/04/07 06:00:38;;;;;;;10.35;7.68;;;8.90;76.20;;;;;;6275531;22;20049;-93
2021/04/07 06:03:05;;;;;;;11.60;8.68;;;8.90;76.10;;;;;;6275134;22;19997;-93
2021/04/07 06:05:31;;;;;;;11.60;8.32;;;9.00;76.10;;;;;;6293364;22;20121;-93
2021/04/07 06:07:58;;;;;;;11.48;8.73;;;9.10;75.70;;;;;;6305091;22;20033;-93
2021/04/07 06:10:25;;;;;;;11.77;8.63;;;9.20;75.30;;;;;;6279034;22;20015;-92
2021/04/07 06:12:52;;;;;;;14.63;9.95;;;9.20;75.00;;;;;;6280272;22;20002;-92
2021/04/07 06:15:18;;;;;;;16.70;9.20;;;9.20;74.70;;;;;;6279775;22;20415;-93
2021/04/07 06:17:58;;;;;;;14.63;8.30;;;9.10;74.30;;;;;;6281974;22;20003;-92
2021/04/07 06:20:26;;;;;;;9.90;7.07;;;9.10;74.40;;;;;;6282320;22;20094;-92
2021/04/07 06:22:52;;;;;;;10.10;7.20;;;8.90;74.40;;;;;;6281936;22;20007;-92
2021/04/07 06:25:22;;;;;;;11.13;7.45;;;8.90;74.70;;;;;;6284591;22;20073;-92
2021/04/07 06:27:53;;;;;;;9.98;6.82;;;8.90;74.90;;;;;;6278378;22;20008;-92
2021/04/07 06:30:23;;;;;;;9.70;6.88;;;8.90;75.20;;;;;;6278459;22;20000;-92
2021/04/07 06:32:50;;;;;;;10.43;7.30;;;8.90;75.20;;;;;;6277227;22;20327;-92
2021/04/07 06:35:16;;;;;;;9.30;6.85;;;8.80;75.40;;;;;;6277838;22;19996;-92
2021/04/07 06:37:42;;;;;;;9.13;6.75;;;8.90;75.50;;;;;;6276987;22;20011;-92
2021/04/07 06:40:08;;;;;;;7.32;5.05;;;9.00;75.10;;;;;;6278467;22;20012;-93
2021/04/07 06:42:34;;;;;;;8.93;5.72;;;9.00;75.10;;;;;;6279256;22;20404;-93
2021/04/07 06:45:01;;;;;;;8.43;5.30;;;9.10;75.10;;;;;;6278470;22;20003;-92
2021/04/07 06:47:27;;;;;;;12.45;7.13;;;9.30;74.90;;;;;;6278379;22;20011;-92
2021/04/07 06:49:54;;;;;;;11.20;7.25;;;9.60;74.20;;;;;;6279606;22;19999;-92
2021/04/07 06:52:22;;;;;;;8.43;6.38;;;9.60;73.60;;;;;;6279013;22;20004;-92
2021/04/07 06:54:53;;;;;;;8.77;6.35;;;9.70;73.60;;;;;;6304568;22;20004;-93
2021/04/07 06:57:20;;;;;;;8.73;7.00;;;9.80;73.60;;;;;;6279650;22;20048;-93
2021/04/07 06:59:48;;;;;;;10.10;7.00;;;9.90;72.30;;;;;;6315824;22;20115;-92
2021/04/07 07:02:15;;;;;;;9.35;7.05;;;10.00;72.40;;;;;;6321466;22;19996;-92
2021/04/07 07:04:41;;;;;;;11.38;7.55;;;10.10;72.30;;;;;;6306032;22;20015;-91
2021/04/07 07:07:07;;;;;;;11.43;7.80;;;10.20;72.00;;;;;;6305362;22;19988;-91
2021/04/07 07:09:33;;;;;;;10.63;7.53;;;10.30;71.20;;;;;;6307182;22;20048;-89
2021/04/07 07:12:00;;;;;;;10.48;7.85;;;10.40;70.60;;;;;;6297582;22;20003;-91
2021/04/07 07:14:26;;;;;;;10.38;6.88;;;10.40;70.50;;;;;;6291767;22;20095;-92
2021/04/07 07:16:53;;;;;;;8.98;6.97;;;10.50;70.60;;;;;;6291302;22;20002;-91
2021/04/07 07:19:29;;;;;;;8.43;5.80;;;10.60;70.70;;;;;;6293576;22;20011;-92
2021/04/07 07:22:01;;;;;;;12.00;6.95;;;10.80;70.40;;;;;;6285232;22;20015;-90
2021/04/07 07:24:39;;;;;;;11.73;8.00;;;11.00;69.90;;;;;;6283145;22;20010;-91
2021/04/07 07:27:07;;;;;;;7.90;6.35;;;11.10;69.30;;;;;;6283139;22;20015;-91
2021/04/07 07:29:36;;;;;;;8.85;6.82;;;11.20;69.10;;;;;;6283477;22;20015;-92
2021/04/07 07:32:11;;;;;;;10.45;7.00;;;11.20;69.40;;;;;;6309686;22;19999;-92
2021/04/07 07:34:38;;;;;;;9.32;6.30;;;11.40;68.90;;;;;;6282696;22;20072;-91
2021/04/07 07:37:05;;;;;;;9.80;6.20;;;11.70;68.90;;;;;;6282907;22;20042;-91
2021/04/07 07:39:36;;;;;;;10.07;6.20;;;12.00;68.30;;;;;;6314016;22;20459;-92
2021/04/07 07:42:10;;;;;;;9.57;7.32;;;12.40;68.20;;;;;;6286312;22;20003;-92
2021/04/07 07:44:38;;;;;;;13.00;9.43;;;12.70;65.90;;;;;;6285770;22;20006;-92
2021/04/07 07:47:19;;;;;;;9.90;7.82;;;12.70;65.00;;;;;;6311438;22;20017;-93
2021/04/07 07:50:06;;;;;;;9.38;6.40;;;12.80;65.60;;;;;;6284045;22;20048;-93
2021/04/07 07:52:34;;;;;;;11.15;8.05;;;13.00;65.40;;;;;;6283705;22;20049;-92
2021/04/07 07:55:18;;;;;;;10.68;7.32;;;13.30;65.20;;;;;;6283209;22;20064;-92
2021/04/07 07:57:55;;;;;;;9.93;7.97;;;13.50;64.50;;;;;;6284720;22;20003;-92
2021/04/07 08:00:25;;;;;;;9.93;7.50;;;13.50;61.10;;;;;;6284286;22;20011;-91
2021/04/07 08:02:52;;;;;;;19.20;8.38;;;13.40;62.40;;;;;;6309586;22;20006;-92
2021/04/07 08:05:20;;;;;;;10.95;7.93;;;13.30;62.80;;;;;;6281133;22;20019;-93
2021/04/07 08:07:46;;;;;;;10.38;8.38;;;13.20;62.90;;;;;;6282135;22;20429;-91
2021/04/07 08:10:13;;;;;;;10.25;7.53;;;13.00;62.10;;;;;;6285505;22;20315;-93
2021/04/07 08:12:45;;;;;;;11.13;8.98;;;12.60;62.30;;;;;;6287311;22;20023;-92
2021/04/07 08:15:12;;;;;;;10.70;7.85;;;12.30;62.50;;;;;;6285034;22;20031;-93
2021/04/07 08:17:41;;;;;;;13.65;7.82;;;11.90;63.40;;;;;;6282782;22;20065;-92
2021/04/07 08:20:13;;;;;;;8.77;6.97;;;11.90;64.70;;;;;;6285684;22;20000;-93
2021/04/07 08:22:39;;;;;;;10.20;7.35;;;12.10;65.10;;;;;;6285736;22;20022;-93
2021/04/07 08:25:06;;;;;;;10.63;7.50;;;12.30;64.50;;;;;;6312350;22;20015;-92
2021/04/07 08:27:40;;;;;;;12.95;8.55;;;12.30;63.50;;;;;;6284948;22;20007;-93
2021/04/07 08:30:07;;;;;;;13.38;9.27;;;12.10;63.10;;;;;;6287136;22;20010;-93
2021/04/07 08:32:45;;;;;;;13.23;8.50;;;11.90;63.40;;;;;;6287116;22;20019;-93
2021/04/07 08:35:12;;;;;;;11.57;8.45;;;11.70;63.70;;;;;;6288814;22;19999;-94
2021/04/07 08:37:39;;;;;;;10.50;8.07;;;11.50;64.80;;;;;;6285954;22;20075;-92
2021/04/07 08:40:13;;;;;;;12.60;8.85;;;11.50;65.40;;;;;;6285551;22;20008;-93
2021/04/07 08:42:43;;;;;;;14.45;9.18;;;11.50;65.30;;;;;;6286980;22;20364;-91
2021/04/07 08:45:11;;;;;;;10.95;8.75;;;11.50;64.80;;;;;;6290924;22;20002;-92
2021/04/07 08:47:49;;;;;;;9.48;7.40;;;11.50;65.10;;;;;;6330596;22;20014;-93
2021/04/07 08:50:16;;;;;;;12.45;8.57;;;11.40;65.00;;;;;;6304395;22;20067;-93
2021/04/07 08:52:44;;;;;;;11.55;8.18;;;11.40;65.00;;;;;;6329768;22;19983;-93
2021/04/07 08:55:24;;;;;;;15.18;9.38;;;11.30;65.10;;;;;;6303539;22;20000;-91
2021/04/07 08:58:03;;;;;;;10.35;8.25;;;11.20;65.30;;;;;;6296013;22;20300;-92
2021/04/07 09:00:35;;;;;;;10.10;7.55;;;11.20;65.70;;;;;;6291702;22;20066;-92
2021/04/07 09:03:20;;;;;;;9.05;7.47;;;11.10;65.90;;;;;;6292498;22;20003;-91
2021/04/07 09:05:48;;;;;;;10.05;7.85;;;11.20;65.90;;;;;;6283103;22;20394;-92
2021/04/07 09:08:25;;;;;;;10.00;6.70;;;11.30;65.70;;;;;;6279693;22;20403;-91
2021/04/07 09:10:53;;;;;;;10.60;7.47;;;11.30;65.30;;;;;;6280318;22;20023;-93
2021/04/07 09:13:22;;;;;;;7.38;6.47;;;11.20;65.20;;;;;;6306401;22;20044;-91
2021/04/07 09:16:02;;;;;;;9.07;6.32;;;11.10;65.60;;;;;;6284681;22;19996;-93
2021/04/07 09:18:42;;;;;;;8.98;6.65;;;11.10;66.00;;;;;;6312470;22;20023;-95
2021/04/07 09:21:21;;;;;;;8.02;6.30;;;11.20;65.90;;;;;;6286122;22;20000;-94
2021/04/07 09:23:59;;;;;;;8.13;6.30;;;11.20;65.90;;;;;;6281452;22;20092;-92
2021/04/07 09:26:28;;;;;;;11.60;7.30;;;11.20;66.00;;;;;;6307048;22;20002;-92
2021/04/07 09:28:58;;;;;;;8.43;6.15;;;11.10;66.30;;;;;;6278954;22;20003;-94
2021/04/07 09:31:27;;;;;;;10.73;7.53;;;10.90;66.40;;;;;;6280859;22;20360;-94
2021/04/07 09:33:58;;;;;;;9.23;6.70;;;10.80;67.30;;;;;;6304792;22;20000;-93
2021/04/07 09:36:57;;;;;;;9.48;6.78;;;10.60;68.00;;;;;;6320641;22;20004;-96
2021/04/07 09:39:29;;;;;;;10.77;7.70;;;10.60;68.80;;;;;;6322841;22;20008;-94
2021/04/07 09:41:58;;;;;;;8.02;6.05;;;10.50;68.50;;;;;;6295594;22;19999;-94
2021/04/07 09:44:50;;;;;;;7.97;5.88;;;10.60;68.50;;;;;;6298381;22;20004;-95
2021/04/07 09:50:52;;;;;;;10.20;7.72;;;10.60;68.40;;;;;;6299817;22;20045;-93
2021/04/07 09:53:37;;;;;;;11.60;8.25;;;10.50;68.50;;;;;;6295167;22;20042;-96
2021/04/07 09:56:06;;;;;;;13.00;8.18;;;10.40;68.90;;;;;;6297018;22;19999;-95
2021/04/07 09:58:53;;;;;;;9.65;7.38;;;10.40;68.80;;;;;;6296655;22;20003;-92
2021/04/07 10:01:24;;;;;;;10.82;7.95;;;10.40;69.10;;;;;;6288000;22;20469;-93
2021/04/07 10:03:58;;;;;;;10.10;7.15;;;10.40;69.10;;;;;;6301125;22;20003;-93
2021/04/07 10:06:26;;;;;;;11.25;7.60;;;10.50;69.10;;;;;;6298630;22;20015;-93
2021/04/07 10:09:23;;;;;;;11.30;7.97;;;10.50;69.00;;;;;;6276325;22;20030;-95
2021/04/07 10:12:12;;;;;;;11.02;7.53;;;10.50;69.10;;;;;;6265859;23;20064;-94
2021/04/07 10:14:53;;;;;;;11.35;8.18;;;10.70;69.10;;;;;;6259235;22;20015;-94
2021/04/07 10:17:30;;;;;;;11.35;7.07;;;10.70;68.90;;;;;;6324763;22;19999;-93
2021/04/07 10:20:05;;;;;;;16.42;7.93;;;10.90;69.00;;;;;;6307490;22;20056;-92
2021/04/07 10:22:36;;;;;;;10.82;7.97;;;11.10;68.50;;;;;;6314754;22;20001;-96
2021/04/07 10:25:15;;;;;;;12.25;8.60;;;11.20;67.80;;;;;;6312696;22;20024;-93
2021/04/07 10:27:43;;;;;;;9.93;7.40;;;11.20;67.10;;;;;;6313515;22;20064;-92
2021/04/07 10:30:18;;;;;;;10.88;7.90;;;11.30;67.10;;;;;;6326507;22;20006;-91
2021/04/07 10:32:50;;;;;;;9.25;6.75;;;11.30;67.30;;;;;;6328919;22;20006;-91
2021/04/07 10:35:21;;;;;;;11.93;8.82;;;11.50;67.30;;;;;;6330641;22;20003;-91
2021/04/07 10:37:51;;;;;;;11.43;8.25;;;11.60;66.30;;;;;;6330641;22;20031;-92
2021/04/07 10:40:21;;;;;;;12.63;7.82;;;11.60;66.20;;;;;;6323454;22;20003;-92
2021/04/07 10:42:49;;;;;;;13.45;8.73;;;11.50;66.30;;;;;;6317486;22;20083;-91
2021/04/07 10:45:18;;;;;;;9.30;7.15;;;11.50;65.90;;;;;;6319201;22;20476;-92
2021/04/07 10:47:45;;;;;;;16.30;8.20;;;11.50;65.70;;;;;;6318434;22;20029;-93
2021/04/07 10:50:12;;;;;;;11.27;7.68;;;11.40;65.80;;;;;;6286261;22;20060;-91
2021/04/07 10:52:47;;;;;;;15.27;8.13;;;11.40;66.00;;;;;;6308687;22;19995;-91
2021/04/07 10:55:28;;;;;;;9.43;7.65;;;11.20;66.10;;;;;;6309273;22;20003;-91
2021/04/07 10:58:00;;;;;;;16.13;8.88;;;11.10;66.50;;;;;;6309650;22;20007;-92
2021/04/07 11:00:30;;;;;;;11.70;8.15;;;10.90;67.20;;;;;;6284143;22;20450;-91
2021/04/07 11:02:59;;;;;;;14.80;9.90;;;10.70;67.60;;;;;;6312765;22;20078;-92
2021/04/07 11:05:27;;;;;;;18.92;13.13;;;10.40;68.30;;;;;;6308640;22;20011;-91
2021/04/07 11:08:01;;;;;;;19.02;14.20;;;10.10;69.90;;;;;;6311306;22;20090;-92
2021/04/07 11:10:35;;;;;;;21.40;14.52;;;9.60;71.20;;;;;;6310667;22;20003;-92
2021/04/07 11:13:00;;;;;;;20.85;12.90;;;9.10;71.70;;;;;;6310898;22;19999;-91
2021/04/07 11:15:26;;;;;;;15.45;12.38;;;8.80;72.50;;;;;;6290426;22;20064;-92
2021/04/07 11:17:56;;;;;;;13.88;10.25;;;8.60;73.80;;;;;;6279708;22;20012;-92
2021/04/07 11:20:27;;;;;;;14.88;10.07;;;8.50;74.10;;;;;;6279927;22;20008;-91
2021/04/07 11:22:53;;;;;;;12.32;9.63;;;8.40;74.00;;;;;;6277497;22;20316;-93
2021/04/07 11:25:20;;;;;;;12.35;8.45;;;8.30;73.70;;;;;;6277672;22;20007;-92
2021/04/07 11:27:47;;;;;;;13.77;8.85;;;8.20;73.80;;;;;;6279840;22;20132;-92
2021/04/07 11:30:16;;;;;;;12.57;8.23;;;8.10;74.70;;;;;;6281259;22;20042;-92
2021/04/07 11:32:44;;;;;;;13.05;7.63;;;8.00;75.00;;;;;;6281102;22;20062;-92
2021/04/07 11:35:19;;;;;;;12.23;6.80;;;7.90;75.10;;;;;;6279523;22;20045;-93
2021/04/07 11:38:05;;;;;;;13.35;7.25;;;7.80;75.40;;;;;;6197497;23;20013;-93
2021/04/07 11:40:42;;;;;;;9.20;6.63;;;7.70;75.80;;;;;;6191676;23;20179;-93
2021/04/07 11:43:29;;;;;;;7.82;6.38;;;7.70;76.40;;;;;;6191259;23;20001;-92
2021/04/07 11:45:58;;;;;;;8.95;6.38;;;7.60;76.60;;;;;;6216106;23;20001;-92
2021/04/07 11:48:24;;;;;;;7.63;5.85;;;7.50;77.00;;;;;;6191227;23;20325;-93
2021/04/07 11:50:50;;;;;;;7.10;5.05;;;7.50;77.00;;;;;;6214697;23;20017;-92
2021/04/07 11:53:25;;;;;;;7.35;5.18;;;7.50;77.30;;;;;;6218303;23;20090;-93
2021/04/07 11:55:52;;;;;;;6.50;4.85;;;7.40;77.30;;;;;;6193428;23;20059;-93
2021/04/07 11:58:21;;;;;;;6.93;5.18;;;7.40;77.30;;;;;;6217970;23;20021;-91
2021/04/07 12:00:54;;;;;;;9.25;5.63;;;7.50;77.40;;;;;;6195868;23;20019;-93
2021/04/07 12:03:20;;;;;;;8.77;5.05;;;7.50;77.30;;;;;;6197445;23;20059;-93
2021/04/07 12:05:46;;;;;;;7.90;5.45;;;7.40;77.00;;;;;;6221153;23;20001;-93
2021/04/07 12:08:14;;;;;;;14.98;6.65;;;7.50;77.30;;;;;;6208178;22;20007;-93
2021/04/07 12:10:41;;;;;;;12.75;6.28;;;7.40;77.80;;;;;;6283708;22;19996;-93
2021/04/07 12:13:07;;;;;;;9.80;5.72;;;7.30;77.80;;;;;;6291631;22;20008;-93
2021/04/07 12:15:40;;;;;;;7.65;4.47;;;7.30;77.90;;;;;;6345601;22;20050;-92
2021/04/07 12:18:08;;;;;;;10.45;6.28;;;7.20;78.40;;;;;;6338926;22;20015;-92
2021/04/07 12:20:34;;;;;;;9.57;6.30;;;7.10;78.40;;;;;;6339230;22;20017;-91
2021/04/07 12:23:01;;;;;;;11.57;7.15;;;7.10;78.20;;;;;;6339451;22;20015;-92
2021/04/07 12:25:29;;;;;;;8.80;5.80;;;7.00;78.60;;;;;;6336094;22;20003;-92
2021/04/07 12:27:56;;;;;;;9.52;6.45;;;7.10;78.20;;;;;;6360552;22;20077;-92
2021/04/07 12:30:23;;;;;;;7.43;5.07;;;7.00;78.10;;;;;;6333975;22;20028;-91
2021/04/07 12:32:53;;;;;;;9.98;6.15;;;7.00;78.40;;;;;;6331324;22;20005;-92
2021/04/07 12:35:20;;;;;;;9.93;6.32;;;6.90;78.80;;;;;;6324990;22;20406;-92
2021/04/07 12:37:45;;;;;;;7.30;5.65;;;6.90;79.20;;;;;;6317185;22;20011;-92
2021/04/07 12:40:12;;;;;;;10.75;7.10;;;6.80;78.70;;;;;;6316942;22;19998;-92
2021/04/07 12:42:41;;;;;;;7.70;6.50;;;6.70;79.60;;;;;;6314732;22;20021;-91
2021/04/07 12:45:08;;;;;;;9.50;6.93;;;6.60;80.30;;;;;;6312490;22;20010;-92
2021/04/07 12:47:42;;;;;;;8.80;6.60;;;6.50;81.60;;;;;;6313825;22;20388;-92
2021/04/07 12:50:14;;;;;;;5.82;4.57;;;6.30;83.10;;;;;;6339951;22;20003;-91
2021/04/07 12:52:42;;;;;;;8.60;4.85;;;6.10;83.70;;;;;;6313971;22;20034;-92
2021/04/07 12:55:11;;;;;;;5.85;4.10;;;5.90;84.50;;;;;;6313383;22;20048;-90
2021/04/07 12:57:37;;;;;;;8.18;4.03;;;5.80;84.40;;;;;;6342693;22;20089;-91
2021/04/07 13:00:05;;;;;;;7.70;4.50;;;5.70;84.80;;;;;;6342682;22;20001;-90
2021/04/07 13:02:31;;;;;;;7.53;4.68;;;5.60;85.50;;;;;;6313503;22;19999;-91